createdAt,value
2019-03-06T00:01:56.895Z,10.20
2019-03-06T00:04:26.571Z,9.83
2019-03-06T00:06:56.225Z,9.07
2019-03-06T00:09:25.824Z,9.77
2019-03-06T00:11:55.372Z,8.40
2019-03-06T00:14:24.976Z,8.90
2019-03-06T00:16:54.877Z,9.50
2019-03-06T00:19:24.407Z,9.73
2019-03-06T00:21:54.027Z,9.13
2019-03-06T00:24:23.783Z,9.07
2019-03-06T00:26:53.332Z,10.37
2019-03-06T00:29:23.114Z,9.00
2019-03-06T00:31:52.725Z,8.67
2019-03-06T00:34:22.131Z,9.17
2019-03-06T00:36:51.803Z,8.40
2019-03-06T00:39:21.456Z,9.67
2019-03-06T00:41:51.130Z,7.97
2019-03-06T00:44:20.888Z,8.30
2019-03-06T00:46:50.457Z,8.90
2019-03-06T00:49:20.156Z,8.40
2019-03-06T00:51:49.955Z,7.90
2019-03-06T00:54:19.595Z,7.70
2019-03-06T00:56:49.174Z,8.00
2019-03-06T00:59:18.832Z,7.10
2019-03-06T01:01:48.428Z,7.10
2019-03-06T01:04:18.260Z,7.90
2019-03-06T01:06:47.839Z,7.20
2019-03-06T01:09:17.382Z,7.07
2019-03-06T01:11:46.909Z,7.20
2019-03-06T01:14:22.971Z,7.10
2019-03-06T01:16:52.585Z,6.77
2019-03-06T01:19:22.271Z,7.47
2019-03-06T01:21:51.906Z,6.60
2019-03-06T01:24:23.230Z,7.73
2019-03-06T01:26:53.027Z,7.43
2019-03-06T01:29:22.496Z,7.13
2019-03-06T01:31:52.343Z,7.13
2019-03-06T01:34:26.087Z,6.90
2019-03-06T01:37:09.004Z,6.63
2019-03-06T01:39:43.258Z,7.50
2019-03-06T01:42:30.703Z,6.93
2019-03-06T01:45:00.357Z,6.20
2019-03-06T01:47:30.470Z,6.20
2019-03-06T01:49:59.896Z,6.23
2019-03-06T01:52:29.538Z,6.50
2019-03-06T01:54:59.338Z,6.47
2019-03-06T01:57:28.866Z,6.40
2019-03-06T01:59:58.511Z,6.83
2019-03-06T02:02:28.028Z,6.27
2019-03-06T02:04:59.350Z,6.17
2019-03-06T02:07:29.041Z,5.83
2019-03-06T02:10:00.317Z,6.67
2019-03-06T02:12:29.956Z,6.37
2019-03-06T02:14:59.508Z,6.33
2019-03-06T02:17:29.204Z,5.97
2019-03-06T02:19:58.784Z,6.37
2019-03-06T02:22:28.326Z,5.80
2019-03-06T02:24:59.534Z,6.50
2019-03-06T02:27:29.130Z,6.10
2019-03-06T02:29:59.153Z,7.03
2019-03-06T02:32:28.776Z,6.40
2019-03-06T02:34:58.349Z,6.47
2019-03-06T02:37:27.842Z,5.90
2019-03-06T02:39:57.342Z,6.93
2019-03-06T02:42:27.156Z,6.10
2019-03-06T02:44:57.008Z,6.57
2019-03-06T02:47:26.637Z,5.83
2019-03-06T02:49:56.233Z,5.63
2019-03-06T02:52:25.747Z,6.70
2019-03-06T02:54:55.649Z,6.57
2019-03-06T02:57:25.160Z,6.53
2019-03-06T02:59:59.001Z,6.23
2019-03-06T03:02:30.313Z,5.50
2019-03-06T03:05:16.643Z,5.60
2019-03-06T03:07:46.148Z,6.07
2019-03-06T03:10:16.040Z,5.33
2019-03-06T03:12:45.680Z,4.90
2019-03-06T03:15:17.202Z,5.80
2019-03-06T03:17:46.703Z,5.70
2019-03-06T03:20:16.544Z,5.60
2019-03-06T03:22:46.085Z,5.43
2019-03-06T03:25:15.679Z,5.43
2019-03-06T03:27:45.705Z,6.10
2019-03-06T03:30:16.171Z,5.20
2019-03-06T03:32:47.325Z,5.10
2019-03-06T03:35:17.826Z,5.23
2019-03-06T03:37:47.578Z,5.30
2019-03-06T03:40:17.219Z,5.57
2019-03-06T03:42:46.989Z,5.80
2019-03-06T03:45:17.152Z,6.13
2019-03-06T03:47:46.617Z,5.10
2019-03-06T03:50:16.442Z,5.17
2019-03-06T03:52:46.093Z,5.17
2019-03-06T03:55:17.843Z,4.50
2019-03-06T03:57:47.518Z,4.93
2019-03-06T04:00:19.343Z,4.30
2019-03-06T04:02:48.840Z,5.00
2019-03-06T04:05:18.444Z,5.70
2019-03-06T04:07:48.126Z,4.67
2019-03-06T04:10:17.647Z,4.30
2019-03-06T04:12:47.156Z,4.37
2019-03-06T04:15:17.748Z,4.57
2019-03-06T04:17:47.543Z,4.20
2019-03-06T04:20:17.585Z,4.40
2019-03-06T04:22:47.102Z,4.47
2019-03-06T04:25:16.651Z,4.10
2019-03-06T04:27:46.176Z,4.17
2019-03-06T04:30:19.682Z,4.63
2019-03-06T04:32:49.190Z,4.50
2019-03-06T04:35:19.962Z,3.60
2019-03-06T04:37:49.605Z,4.00
2019-03-06T04:40:19.399Z,3.47
2019-03-06T04:42:49.010Z,3.70
2019-03-06T04:45:18.925Z,3.10
2019-03-06T04:47:48.469Z,3.80
2019-03-06T04:50:18.063Z,4.33
2019-03-06T04:52:47.798Z,3.80
2019-03-06T04:55:17.597Z,2.87
2019-03-06T04:57:47.392Z,3.93
2019-03-06T05:00:19.373Z,3.50
2019-03-06T05:02:48.972Z,3.40
2019-03-06T05:05:18.726Z,3.47
2019-03-06T05:07:48.290Z,3.17
2019-03-06T05:10:18.150Z,3.00
2019-03-06T05:12:47.635Z,3.47
2019-03-06T05:15:18.341Z,3.50
2019-03-06T05:17:52.174Z,4.10
2019-03-06T05:20:21.660Z,3.07
2019-03-06T05:22:51.226Z,3.87
2019-03-06T05:25:20.792Z,2.90
2019-03-06T05:27:50.264Z,3.00
2019-03-06T05:30:21.456Z,3.23
2019-03-06T05:32:56.884Z,2.87
2019-03-06T05:35:41.212Z,2.97
2019-03-06T05:38:16.795Z,3.10
2019-03-06T05:40:46.366Z,3.10
2019-03-06T05:43:16.065Z,2.70
2019-03-06T05:45:45.816Z,2.50
2019-03-06T05:48:15.629Z,2.97
2019-03-06T05:50:45.206Z,2.90
2019-03-06T05:53:14.954Z,2.83
2019-03-06T05:55:44.606Z,2.57
2019-03-06T05:58:14.346Z,2.53
2019-03-06T06:00:43.888Z,2.40
2019-03-06T06:03:13.557Z,2.80
2019-03-06T06:05:43.210Z,2.17
2019-03-06T06:08:12.787Z,3.47
2019-03-06T06:10:42.288Z,2.43
2019-03-06T06:13:11.911Z,3.17
2019-03-06T06:15:41.506Z,2.97
2019-03-06T06:18:11.064Z,2.10
2019-03-06T06:20:40.587Z,2.20
2019-03-06T06:23:14.805Z,2.30
2019-03-06T06:25:44.268Z,2.90
2019-03-06T06:28:13.805Z,2.67
2019-03-06T06:30:43.771Z,2.10
2019-03-06T06:33:13.220Z,2.67
2019-03-06T06:35:42.868Z,2.83
2019-03-06T06:38:12.395Z,2.53
2019-03-06T06:40:41.957Z,2.30
2019-03-06T06:43:11.439Z,2.20
2019-03-06T06:45:41.041Z,2.37
2019-03-06T06:48:15.525Z,2.20
2019-03-06T06:51:01.232Z,2.40
2019-03-06T06:53:34.254Z,2.70
2019-03-06T06:56:18.007Z,2.13
2019-03-06T06:58:53.072Z,2.50
2019-03-06T07:01:32.888Z,2.30
2019-03-06T07:04:21.958Z,2.80
2019-03-06T07:06:58.960Z,2.57
2019-03-06T07:09:45.365Z,3.50
2019-03-06T07:12:22.901Z,2.20
2019-03-06T07:15:09.929Z,2.60
2019-03-06T07:17:41.052Z,2.43
2019-03-06T07:20:21.595Z,2.80
2019-03-06T07:22:55.187Z,2.77
2019-03-06T07:25:26.451Z,2.87
2019-03-06T07:28:00.573Z,2.77
2019-03-06T07:30:34.599Z,3.33
2019-03-06T07:33:08.347Z,2.43
2019-03-06T07:36:00.429Z,2.40
2019-03-06T07:38:30.439Z,2.70
2019-03-06T07:41:04.393Z,2.60
2019-03-06T07:43:44.349Z,2.37
2019-03-06T07:46:33.985Z,2.20
2019-03-06T07:49:21.063Z,2.37
2019-03-06T07:52:01.265Z,2.73
2019-03-06T07:54:43.977Z,2.47
2019-03-06T07:57:15.253Z,2.30
2019-03-06T07:59:45.083Z,2.70
2019-03-06T08:02:30.942Z,2.70
2019-03-06T08:05:01.614Z,2.37
2019-03-06T08:07:31.173Z,2.53
2019-03-06T08:10:00.732Z,2.80
2019-03-06T08:12:31.894Z,3.47
2019-03-06T08:15:06.195Z,3.27
2019-03-06T08:17:53.313Z,2.80
2019-03-06T08:20:40.533Z,2.77
2019-03-06T08:23:17.503Z,3.13
2019-03-06T08:25:47.864Z,3.30
2019-03-06T08:28:17.644Z,2.80
2019-03-06T08:31:05.253Z,2.90
2019-03-06T08:33:34.858Z,2.13
2019-03-06T08:36:04.525Z,2.53
2019-03-06T08:38:34.247Z,3.00
2019-03-06T08:41:04.879Z,2.80
2019-03-06T08:43:34.995Z,2.50
2019-03-06T08:46:12.125Z,2.40
2019-03-06T08:48:49.285Z,2.63
2019-03-06T08:51:36.465Z,2.60
2019-03-06T08:54:10.503Z,2.47
2019-03-06T08:56:47.661Z,2.73
2019-03-06T08:59:18.824Z,2.63
2019-03-06T09:02:15.089Z,2.50
2019-03-06T09:04:43.498Z,2.70
2019-03-06T09:07:18.425Z,3.10
2019-03-06T09:09:49.569Z,2.50
2019-03-06T09:12:23.601Z,2.73
2019-03-06T09:15:00.404Z,2.50
2019-03-06T09:17:40.388Z,2.90
2019-03-06T09:20:17.628Z,2.53
2019-03-06T09:22:48.793Z,2.73
2019-03-06T09:25:20.021Z,2.50
2019-03-06T09:27:59.920Z,2.60
2019-03-06T09:30:33.985Z,2.33
2019-03-06T09:33:05.317Z,2.87
2019-03-06T09:35:36.483Z,2.90
2019-03-06T09:38:19.877Z,2.87
2019-03-06T09:40:53.837Z,2.97
2019-03-06T09:43:27.739Z,2.63
2019-03-06T09:46:04.879Z,2.80
2019-03-06T09:48:42.197Z,2.40
2019-03-06T09:51:22.605Z,2.60
2019-03-06T09:53:56.873Z,2.73
2019-03-06T09:56:33.789Z,3.00
2019-03-06T09:59:23.141Z,2.60
2019-03-06T10:02:06.674Z,3.27
2019-03-06T10:04:36.250Z,2.90
2019-03-06T10:07:22.452Z,2.57
2019-03-06T10:09:59.348Z,3.20
2019-03-06T10:12:29.711Z,2.83
2019-03-06T10:15:13.805Z,3.27
2019-03-06T10:17:51.319Z,2.70
2019-03-06T10:20:25.453Z,3.27
2019-03-06T10:22:54.803Z,3.53
2019-03-06T10:25:30.044Z,2.70
2019-03-06T10:28:05.731Z,2.60
2019-03-06T10:30:28.101Z,3.23
2019-03-06T10:32:58.011Z,2.87
2019-03-06T10:35:27.536Z,3.00
2019-03-06T10:37:57.506Z,2.50
2019-03-06T10:41:20.825Z,3.10
2019-03-06T10:43:50.590Z,3.13
2019-03-06T10:46:20.204Z,3.23
2019-03-06T10:48:49.964Z,3.40
2019-03-06T10:51:19.944Z,2.90
2019-03-06T10:53:49.463Z,2.87
2019-03-06T10:56:19.111Z,2.73
2019-03-06T10:58:48.628Z,3.40
2019-03-06T11:01:18.410Z,2.87
2019-03-06T11:03:52.412Z,3.43
2019-03-06T11:06:22.197Z,2.63
2019-03-06T11:08:51.831Z,2.80
2019-03-06T11:11:21.655Z,2.97
2019-03-06T11:13:51.489Z,3.27
2019-03-06T11:16:21.407Z,3.23
2019-03-06T11:18:51.484Z,3.37
2019-03-06T11:21:21.254Z,2.90
2019-03-06T11:23:50.802Z,2.77
2019-03-06T11:26:20.571Z,3.27
2019-03-06T11:28:50.216Z,3.53
2019-03-06T11:31:20.064Z,3.03
2019-03-06T11:33:49.555Z,3.20
2019-03-06T11:36:19.276Z,2.87
2019-03-06T11:38:49.010Z,3.30
2019-03-06T11:41:18.910Z,3.07
2019-03-06T11:43:48.570Z,2.90
2019-03-06T11:46:19.292Z,3.50
2019-03-06T11:48:49.642Z,3.20
2019-03-06T11:51:19.350Z,3.37
2019-03-06T11:53:49.312Z,3.40
2019-03-06T11:56:19.218Z,3.53
2019-03-06T11:58:49.046Z,3.07
2019-03-06T12:01:20.358Z,3.60
2019-03-06T12:03:49.999Z,3.03
2019-03-06T12:06:19.762Z,3.10
2019-03-06T12:08:49.567Z,3.67
2019-03-06T12:11:19.156Z,3.07
2019-03-06T12:13:50.123Z,3.23
2019-03-06T12:16:20.047Z,3.73
2019-03-06T12:18:49.750Z,3.27
2019-03-06T12:21:19.558Z,3.23
2019-03-06T12:23:49.261Z,3.23
2019-03-06T12:26:18.977Z,3.40
2019-03-06T12:28:48.916Z,3.23
2019-03-06T12:31:19.135Z,2.60
2019-03-06T12:33:49.812Z,2.97
2019-03-06T12:36:19.545Z,3.10
2019-03-06T12:38:49.387Z,2.70
2019-03-06T12:41:19.102Z,3.57
2019-03-06T12:43:48.764Z,3.00
2019-03-06T12:46:23.873Z,3.30
2019-03-06T12:48:58.361Z,3.07
2019-03-06T12:51:28.484Z,2.97
2019-03-06T12:53:57.996Z,3.20
2019-03-06T12:56:27.844Z,3.03
2019-03-06T12:58:57.392Z,3.20
2019-03-06T13:01:27.262Z,3.33
2019-03-06T13:03:57.109Z,3.13
2019-03-06T13:06:26.782Z,3.60
2019-03-06T13:08:57.352Z,3.13
2019-03-06T13:11:27.015Z,2.93
2019-03-06T13:13:56.597Z,3.00
2019-03-06T13:16:26.420Z,3.10
2019-03-06T13:18:56.089Z,2.70
2019-03-06T13:21:25.792Z,2.83
2019-03-06T13:23:55.308Z,3.60
2019-03-06T13:26:24.735Z,2.80
2019-03-06T13:28:57.367Z,3.63
2019-03-06T13:31:25.758Z,3.37
2019-03-06T13:34:13.440Z,3.43
2019-03-06T13:36:43.038Z,3.30
2019-03-06T13:39:12.655Z,2.93
2019-03-06T13:41:42.196Z,3.00
2019-03-06T13:44:11.989Z,3.30
2019-03-06T13:46:41.840Z,3.30
2019-03-06T13:49:11.522Z,3.90
2019-03-06T13:51:41.741Z,3.30
2019-03-06T13:54:11.314Z,3.10
2019-03-06T13:56:40.920Z,3.10
2019-03-06T13:59:10.626Z,3.60
2019-03-06T14:01:40.262Z,3.70
2019-03-06T14:04:09.974Z,4.40
2019-03-06T14:06:39.570Z,3.53
2019-03-06T14:09:09.496Z,3.27
2019-03-06T14:11:39.169Z,3.47
2019-03-06T14:14:08.680Z,3.97
2019-03-06T14:16:38.590Z,3.33
2019-03-06T14:19:08.178Z,3.27
2019-03-06T14:21:37.754Z,2.93
2019-03-06T14:24:07.242Z,3.50
2019-03-06T14:26:37.222Z,5.23
2019-03-06T14:29:06.746Z,4.03
2019-03-06T14:31:36.502Z,3.60
2019-03-06T14:34:06.121Z,4.20
2019-03-06T14:36:35.757Z,3.77
2019-03-06T14:39:08.586Z,3.60
2019-03-06T14:41:38.147Z,3.43
2019-03-06T14:44:07.782Z,3.23
2019-03-06T14:46:37.246Z,3.23
2019-03-06T14:49:06.913Z,3.60
2019-03-06T14:51:36.517Z,3.83
2019-03-06T14:54:06.982Z,3.73
2019-03-06T14:56:36.591Z,4.00
2019-03-06T14:59:06.220Z,4.00
2019-03-06T15:01:35.795Z,3.70
2019-03-06T15:04:05.742Z,3.30
2019-03-06T15:06:35.711Z,4.00
2019-03-06T15:09:08.666Z,3.93
2019-03-06T15:11:38.268Z,3.40
2019-03-06T15:14:07.761Z,3.70
2019-03-06T15:16:37.252Z,3.93
2019-03-06T15:19:06.956Z,4.23
2019-03-06T15:21:36.742Z,3.90
2019-03-06T15:24:06.496Z,4.10
2019-03-06T15:26:36.070Z,3.50
2019-03-06T15:29:05.830Z,3.73
2019-03-06T15:31:35.473Z,3.80
2019-03-06T15:34:05.478Z,3.57
2019-03-06T15:36:35.092Z,3.47
2019-03-06T15:39:07.672Z,3.80
2019-03-06T15:41:37.377Z,3.63
2019-03-06T15:44:07.110Z,3.57
2019-03-06T15:46:36.774Z,3.87
2019-03-06T15:49:06.562Z,4.00
2019-03-06T15:51:36.370Z,4.00
2019-03-06T15:54:05.965Z,3.57
2019-03-06T15:56:35.644Z,3.67
2019-03-06T15:59:14.409Z,4.27
2019-03-06T16:01:36.454Z,3.97
2019-03-06T16:04:06.535Z,4.10
2019-03-06T16:06:36.342Z,4.87
2019-03-06T16:09:08.107Z,4.23
2019-03-06T16:11:37.749Z,4.10
2019-03-06T16:14:09.018Z,4.40
2019-03-06T16:16:38.700Z,4.70
2019-03-06T16:19:08.371Z,5.23
2019-03-06T16:21:37.945Z,5.53
2019-03-06T16:24:07.391Z,4.80
2019-03-06T16:26:37.179Z,4.50
2019-03-06T16:29:06.907Z,4.43
2019-03-06T16:31:36.814Z,4.60
2019-03-06T16:34:06.750Z,4.60
2019-03-06T16:36:36.402Z,5.10
2019-03-06T16:39:07.546Z,4.90
2019-03-06T16:41:37.586Z,5.47
2019-03-06T16:44:08.382Z,5.53
2019-03-06T16:46:38.045Z,5.30
2019-03-06T16:49:08.128Z,5.17
2019-03-06T16:51:38.184Z,5.23
2019-03-06T16:54:07.996Z,5.23
2019-03-06T16:56:37.641Z,5.80
2019-03-06T16:59:07.444Z,5.60
2019-03-06T17:01:38.377Z,4.90
2019-03-06T17:04:08.033Z,5.63
2019-03-06T17:06:37.789Z,6.13
2019-03-06T17:09:08.050Z,5.60
2019-03-06T17:11:37.724Z,5.97
2019-03-06T17:14:07.452Z,6.20
2019-03-06T17:16:37.337Z,5.90
2019-03-06T17:19:07.212Z,6.00
2019-03-06T17:21:36.882Z,5.70
2019-03-06T17:24:06.618Z,5.83
2019-03-06T17:26:36.986Z,6.13
2019-03-06T17:29:11.465Z,6.53
2019-03-06T17:31:41.847Z,6.27
2019-03-06T17:34:11.440Z,6.07
2019-03-06T17:36:41.285Z,6.40
2019-03-06T17:39:11.552Z,6.73
2019-03-06T17:41:41.020Z,6.43
2019-03-06T17:44:11.193Z,6.77
2019-03-06T17:46:40.881Z,6.13
2019-03-06T17:49:10.617Z,6.13
2019-03-06T17:51:40.194Z,6.00
2019-03-06T17:54:09.859Z,6.67
2019-03-06T17:56:39.504Z,6.23
2019-03-06T17:59:09.002Z,6.63
2019-03-06T18:01:38.772Z,7.23
2019-03-06T18:04:09.898Z,6.43
2019-03-06T18:06:39.408Z,6.77
2019-03-06T18:09:09.471Z,6.70
2019-03-06T18:11:39.158Z,6.80
2019-03-06T18:14:08.650Z,6.67
2019-03-06T18:16:38.586Z,6.90
2019-03-06T18:19:08.146Z,6.97
2019-03-06T18:21:37.997Z,7.00
2019-03-06T18:24:07.752Z,6.53
2019-03-06T18:26:37.400Z,6.87
2019-03-06T18:29:06.961Z,7.07
2019-03-06T18:31:36.784Z,7.10
2019-03-06T18:34:06.691Z,7.27
2019-03-06T18:36:36.331Z,7.33
2019-03-06T18:39:08.834Z,7.73
2019-03-06T18:41:38.425Z,6.97
2019-03-06T18:44:08.432Z,7.23
2019-03-06T18:46:38.111Z,7.80
2019-03-06T18:49:21.169Z,8.07
2019-03-06T18:51:50.710Z,7.33
2019-03-06T18:54:20.355Z,7.67
2019-03-06T18:56:50.230Z,7.43
2019-03-06T18:59:19.890Z,7.30
2019-03-06T19:01:49.719Z,7.53
2019-03-06T19:04:19.304Z,7.57
2019-03-06T19:06:48.881Z,8.70
2019-03-06T19:09:19.864Z,7.43
2019-03-06T19:12:08.048Z,7.40
2019-03-06T19:14:37.684Z,9.00
2019-03-06T19:17:07.309Z,8.70
2019-03-06T19:19:36.814Z,8.20
2019-03-06T19:22:06.624Z,8.47
2019-03-06T19:24:36.185Z,8.30
2019-03-06T19:27:05.750Z,8.67
2019-03-06T19:29:35.361Z,8.60
2019-03-06T19:32:05.233Z,8.60
2019-03-06T19:34:34.591Z,9.10
2019-03-06T19:37:04.224Z,9.33
2019-03-06T19:39:33.645Z,8.47
2019-03-06T19:42:03.093Z,8.27
2019-03-06T19:44:50.695Z,7.93
2019-03-06T19:47:20.891Z,9.10
2019-03-06T19:49:50.475Z,8.60
2019-03-06T19:52:20.405Z,9.23
2019-03-06T19:54:50.267Z,9.37
2019-03-06T19:57:19.995Z,9.23
2019-03-06T19:59:49.586Z,8.57
2019-03-06T20:02:19.707Z,8.70
2019-03-06T20:04:49.279Z,8.53
2019-03-06T20:07:18.875Z,8.73
2019-03-06T20:09:48.969Z,8.97
2019-03-06T20:12:18.838Z,9.30
2019-03-06T20:14:48.532Z,9.73
2019-03-06T20:17:20.234Z,10.10
2019-03-06T20:19:49.861Z,10.07
2019-03-06T20:24:54.639Z,9.20
2019-03-06T20:27:24.411Z,9.37
2019-03-06T20:29:54.163Z,9.27
2019-03-06T20:32:23.889Z,9.43
2019-03-06T20:35:06.339Z,9.43
2019-03-06T20:37:48.260Z,8.77
2019-03-06T20:40:23.831Z,9.50
2019-03-06T20:42:53.474Z,8.97
2019-03-06T20:45:23.181Z,9.20
2019-03-06T20:47:52.749Z,9.10
2019-03-06T20:50:22.291Z,9.80
2019-03-06T20:52:51.918Z,9.50
2019-03-06T20:55:33.688Z,9.20
2019-03-06T20:58:03.545Z,9.87
2019-03-06T21:00:33.049Z,9.23
2019-03-06T21:03:03.648Z,9.97
2019-03-06T21:05:33.195Z,9.70
2019-03-06T21:08:02.824Z,10.20
2019-03-06T21:10:32.478Z,11.97
2019-03-06T21:13:02.184Z,10.87
2019-03-06T21:15:31.627Z,9.30
2019-03-06T21:18:01.301Z,9.70
2019-03-06T21:20:30.770Z,9.00
2019-03-06T21:23:01.955Z,9.73
2019-03-06T21:25:33.513Z,8.93
2019-03-06T21:28:03.091Z,8.93
2019-03-06T21:30:34.306Z,9.60
2019-03-06T21:33:03.901Z,8.63
2019-03-06T21:35:35.367Z,9.10
2019-03-06T21:38:05.204Z,8.40
2019-03-06T21:40:40.579Z,8.70
2019-03-06T21:43:10.275Z,8.57
2019-03-06T21:45:39.879Z,8.77
2019-03-06T21:48:09.491Z,8.23
2019-03-06T21:50:39.073Z,9.00
2019-03-06T21:53:08.588Z,8.83
2019-03-06T21:55:38.331Z,8.30
2019-03-06T21:58:07.977Z,8.57
2019-03-06T22:00:37.727Z,8.73
2019-03-06T22:03:07.306Z,8.07
2019-03-06T22:05:36.864Z,8.70
2019-03-06T22:08:06.733Z,8.10
2019-03-06T22:10:36.195Z,7.77
2019-03-06T22:13:05.824Z,8.10
2019-03-06T22:15:35.374Z,8.03
2019-03-06T22:18:04.924Z,7.80
2019-03-06T22:20:34.626Z,7.97
2019-03-06T22:23:04.225Z,8.03
2019-03-06T22:25:33.969Z,7.43
2019-03-06T22:28:03.651Z,8.27
2019-03-06T22:30:33.348Z,8.17
2019-03-06T22:33:03.057Z,7.30
2019-03-06T22:35:32.609Z,6.53
2019-03-06T22:38:02.285Z,7.03
2019-03-06T22:40:31.905Z,7.53
2019-03-06T22:43:01.528Z,7.57
2019-03-06T22:45:31.135Z,7.60
2019-03-06T22:48:00.739Z,7.37
2019-03-06T22:50:30.413Z,6.87
2019-03-06T22:52:59.965Z,7.00
2019-03-06T22:55:29.504Z,6.90
2019-03-06T22:57:59.130Z,6.63
2019-03-06T23:00:32.524Z,6.97
2019-03-06T23:03:02.240Z,6.23
2019-03-06T23:05:36.406Z,6.43
2019-03-06T23:08:06.083Z,6.47
2019-03-06T23:10:35.742Z,6.20
2019-03-06T23:13:05.349Z,6.90
2019-03-06T23:15:34.888Z,7.03
2019-03-06T23:18:05.179Z,6.73
2019-03-06T23:20:34.764Z,6.47
2019-03-06T23:23:04.571Z,7.20
2019-03-06T23:25:34.220Z,7.10
2019-03-06T23:28:03.778Z,7.10
2019-03-06T23:30:33.723Z,7.07
2019-03-06T23:33:03.425Z,6.37
2019-03-06T23:35:32.942Z,6.10
2019-03-06T23:38:02.521Z,6.73
2019-03-06T23:40:32.036Z,6.47
2019-03-06T23:43:01.690Z,6.83
2019-03-06T23:45:31.284Z,6.93
2019-03-06T23:48:01.112Z,6.80
2019-03-06T23:50:30.749Z,6.97
2019-03-06T23:53:12.690Z,6.13
2019-03-06T23:55:42.390Z,6.93
2019-03-06T23:58:12.038Z,7.10
